Terminal Aerodrome Forecast
Issued by NWS

Home | Current Version | Previous Version | Text Only | Print | Product List | Glossary On
Versions: 1 2 3 4 5 6 7 8 9 10 11 12 13 14 15
458
FTUS44 KLZK 171730
TAFHRO
TAF
KHRO 171730Z 1718/1818 16011KT P6SM SKC
     FM172330 15003KT P6SM SKC
     FM181430 15008KT P6SM SKC=

USA.gov is the U.S. government's official web portal to all federal, state and local government web resources and services.